Terminal Aerodrome Forecast
Issued by NWS

Current Version | Previous Version | Graphics & Text | Print | Product List | Glossary On
Versions: 1 2 3 4 5 6 7 8 9 10 11 12 13 14 15 16 17 18 19 20 21
000
FTUS41 KPBZ 010500
TAFHLG
TAF
KHLG 010524Z 0106/0206 21006KT P6SM OVC040
     FM010900 VRB03KT 3SM -SN BR OVC020
     FM011100 10005KT 1SM -SN BR OVC005
     FM012000 11006KT 2SM -DZ BR SCT008 OVC080
     FM020300 12007KT 2SM -RA BR OVC005=

USA.gov is the U.S. government's official web portal to all federal, state and local government web resources and services.